createdAt,value
2018-08-13T00:02:41.233Z,19.52
2018-08-13T00:07:45.316Z,19.43
2018-08-13T00:12:48.781Z,19.65
2018-08-13T00:17:52.333Z,19.78
2018-08-13T00:22:55.987Z,19.77
2018-08-13T00:28:00.217Z,19.85
2018-08-13T00:33:03.735Z,19.80
2018-08-13T00:38:07.365Z,19.75
2018-08-13T00:43:10.848Z,19.79
2018-08-13T00:48:14.309Z,19.80
2018-08-13T00:53:17.882Z,19.70
2018-08-13T00:58:21.353Z,19.70
2018-08-13T01:03:24.823Z,19.63
2018-08-13T01:08:28.416Z,19.61
2018-08-13T01:13:31.974Z,19.58
2018-08-13T01:18:35.494Z,19.51
2018-08-13T01:23:39.129Z,19.49
2018-08-13T01:28:42.686Z,19.41
2018-08-13T01:33:46.255Z,19.26
2018-08-13T01:38:49.808Z,19.15
2018-08-13T01:43:53.329Z,19.02
2018-08-13T01:48:56.829Z,18.91
2018-08-13T01:54:00.418Z,18.92
2018-08-13T01:59:03.947Z,18.77
2018-08-13T02:04:07.490Z,18.76
2018-08-13T02:09:12.292Z,18.74
2018-08-13T02:14:15.786Z,18.62
2018-08-13T02:19:19.625Z,18.55
2018-08-13T02:24:23.150Z,18.58
2018-08-13T02:29:27.388Z,18.57
2018-08-13T02:34:30.881Z,18.48
2018-08-13T02:39:34.427Z,18.18
2018-08-13T02:44:38.310Z,18.28
2018-08-13T02:49:41.833Z,18.18
2018-08-13T02:54:45.331Z,18.18
2018-08-13T02:59:48.810Z,18.02
2018-08-13T03:04:53.210Z,18.09
2018-08-13T03:09:56.754Z,18.20
2018-08-13T03:15:00.327Z,18.15
2018-08-13T03:20:03.981Z,18.06
2018-08-13T03:25:09.469Z,18.00
2018-08-13T03:30:13.861Z,17.98
2018-08-13T03:35:17.425Z,17.95
2018-08-13T03:40:20.918Z,17.87
2018-08-13T03:45:24.402Z,17.91
2018-08-13T03:50:27.916Z,17.90
2018-08-13T03:55:31.490Z,17.84
2018-08-13T04:00:35.031Z,17.83
2018-08-13T04:05:38.517Z,17.85
2018-08-13T04:10:42.082Z,17.84
2018-08-13T04:15:45.590Z,17.83
2018-08-13T04:20:49.073Z,17.84
2018-08-13T04:25:53.276Z,17.67
2018-08-13T04:30:56.820Z,17.64
2018-08-13T04:36:00.363Z,17.83
2018-08-13T04:41:03.893Z,17.92
2018-08-13T04:46:07.669Z,18.15
2018-08-13T04:51:11.194Z,18.24
2018-08-13T04:56:14.746Z,18.27
2018-08-13T05:01:18.264Z,18.39
2018-08-13T05:06:21.838Z,18.54
2018-08-13T05:11:25.401Z,18.62
2018-08-13T05:16:35.513Z,18.66
2018-08-13T05:21:39.097Z,18.84
2018-08-13T05:26:42.721Z,19.00
2018-08-13T05:31:46.409Z,19.12
2018-08-13T05:36:49.929Z,19.25
2018-08-13T05:41:53.453Z,19.36
2018-08-13T05:46:56.965Z,19.42
2018-08-13T05:52:00.488Z,19.61
2018-08-13T05:57:03.994Z,19.73
2018-08-13T06:02:07.484Z,19.83
2018-08-13T06:07:11.036Z,19.93
2018-08-13T06:12:14.665Z,20.05
2018-08-13T06:17:18.169Z,20.16
2018-08-13T06:22:21.715Z,20.28
2018-08-13T06:27:25.178Z,20.45
2018-08-13T06:32:28.752Z,20.56
2018-08-13T06:37:32.380Z,20.72
2018-08-13T06:42:35.881Z,20.90
2018-08-13T06:47:40.264Z,21.04
2018-08-13T06:52:44.047Z,21.16
2018-08-13T06:57:47.628Z,21.31
2018-08-13T07:02:51.164Z,21.44
2018-08-13T07:07:54.634Z,21.58
2018-08-13T07:12:58.150Z,21.72
2018-08-13T07:18:01.643Z,21.86
2018-08-13T07:23:05.124Z,22.06
2018-08-13T07:28:08.776Z,22.19
2018-08-13T07:33:12.261Z,22.51
2018-08-13T07:38:15.768Z,22.70
2018-08-13T07:43:19.244Z,22.77
2018-08-13T07:48:22.861Z,22.85
2018-08-13T07:53:26.330Z,23.06
2018-08-13T07:58:29.854Z,23.22
2018-08-13T08:03:33.496Z,23.39
2018-08-13T08:08:37.009Z,23.62
2018-08-13T08:13:40.501Z,23.79
2018-08-13T08:18:44.026Z,23.93
2018-08-13T08:23:47.520Z,24.09
2018-08-13T08:28:51.103Z,24.26
2018-08-13T08:33:54.620Z,24.80
2018-08-13T08:38:58.166Z,24.95
2018-08-13T08:44:01.732Z,25.03
2018-08-13T08:49:05.234Z,25.14
2018-08-13T08:54:10.167Z,25.24
2018-08-13T08:59:13.673Z,25.22
2018-08-13T09:04:17.254Z,24.25
2018-08-13T09:09:20.871Z,23.79
2018-08-13T09:14:24.333Z,24.25
2018-08-13T09:19:38.904Z,24.88
2018-08-13T09:24:53.714Z,25.39
2018-08-13T09:32:10.111Z,25.98
2018-08-13T09:37:13.623Z,26.06
2018-08-13T09:42:17.137Z,26.24
2018-08-13T09:47:20.566Z,26.43
2018-08-13T09:52:24.093Z,26.55
2018-08-13T09:57:27.651Z,26.79
2018-08-13T10:02:31.265Z,26.86
2018-08-13T10:07:34.770Z,27.01
2018-08-13T10:12:38.251Z,27.18
2018-08-13T10:17:41.839Z,27.29
2018-08-13T10:22:45.471Z,27.50
2018-08-13T10:27:48.943Z,28.01
2018-08-13T10:32:52.558Z,28.57
2018-08-13T10:37:56.090Z,28.96
2018-08-13T10:42:59.826Z,29.68
2018-08-13T10:48:03.322Z,29.39
2018-08-13T10:53:06.897Z,29.12
2018-08-13T10:58:10.417Z,29.40
2018-08-13T11:03:13.881Z,30.06
2018-08-13T11:08:17.411Z,30.39
2018-08-13T11:13:21.087Z,30.26
2018-08-13T11:18:24.585Z,29.80
2018-08-13T11:23:28.105Z,30.36
2018-08-13T11:28:31.586Z,30.74
2018-08-13T11:33:35.043Z,31.04
2018-08-13T11:38:38.577Z,31.45
2018-08-13T11:43:42.094Z,31.78
2018-08-13T11:48:45.621Z,32.22
2018-08-13T11:53:49.118Z,33.22
2018-08-13T11:58:52.726Z,31.58
2018-08-13T12:03:56.223Z,30.66
2018-08-13T12:08:59.746Z,29.99
2018-08-13T12:14:03.359Z,29.61
2018-08-13T12:19:07.122Z,30.09
2018-08-13T12:24:10.680Z,30.53
2018-08-13T12:29:14.209Z,30.84
2018-08-13T12:34:17.722Z,30.69
2018-08-13T12:39:21.167Z,31.01
2018-08-13T12:44:24.753Z,31.09
2018-08-13T12:49:28.344Z,30.99
2018-08-13T12:54:31.884Z,30.49
2018-08-13T12:59:35.418Z,30.06
2018-08-13T13:04:38.913Z,29.85
2018-08-13T13:09:42.414Z,29.93
2018-08-13T13:14:45.917Z,29.80
2018-08-13T13:19:49.389Z,29.73
2018-08-13T13:24:52.941Z,29.61
2018-08-13T13:29:56.386Z,29.65
2018-08-13T13:34:59.918Z,29.77
2018-08-13T13:40:03.981Z,29.21
2018-08-13T13:45:08.844Z,28.70
2018-08-13T13:50:14.705Z,28.19
2018-08-13T13:55:18.318Z,27.65
2018-08-13T14:00:22.496Z,27.47
2018-08-13T14:05:25.955Z,27.25
2018-08-13T14:10:29.472Z,26.98
2018-08-13T14:15:32.980Z,26.62
2018-08-13T14:20:36.593Z,26.35
2018-08-13T14:25:40.197Z,26.04
2018-08-13T14:30:43.785Z,25.74
2018-08-13T14:35:47.722Z,25.04
2018-08-13T14:40:51.667Z,24.33
2018-08-13T14:45:55.200Z,24.12
2018-08-13T14:50:58.764Z,24.04
2018-08-13T14:56:02.325Z,24.16
2018-08-13T15:01:05.809Z,24.35
2018-08-13T15:06:09.272Z,24.58
2018-08-13T15:11:12.907Z,24.62
2018-08-13T15:16:16.679Z,24.57
2018-08-13T15:21:20.518Z,24.52
2018-08-13T15:26:24.222Z,24.62
2018-08-13T15:31:27.747Z,24.70
2018-08-13T15:36:31.385Z,24.45
2018-08-13T15:41:34.935Z,24.48
2018-08-13T15:46:38.377Z,24.55
2018-08-13T15:51:41.908Z,24.47
2018-08-13T15:56:45.672Z,24.44
2018-08-13T16:01:49.423Z,24.32
2018-08-13T16:06:53.060Z,24.31
2018-08-13T16:11:56.607Z,24.12
2018-08-13T16:17:00.246Z,24.14
2018-08-13T16:22:03.982Z,24.01
2018-08-13T16:27:07.534Z,23.90
2018-08-13T16:32:11.165Z,23.87
2018-08-13T16:37:16.503Z,24.06
2018-08-13T16:42:22.573Z,24.22
2018-08-13T16:47:27.552Z,24.33
2018-08-13T16:52:32.094Z,24.40
2018-08-13T16:57:37.395Z,24.56
2018-08-13T17:02:41.376Z,24.57
2018-08-13T17:07:45.297Z,24.53
2018-08-13T17:12:50.523Z,24.35
2018-08-13T17:17:56.871Z,24.34
2018-08-13T17:23:02.034Z,24.48
2018-08-13T17:28:07.040Z,24.49
2018-08-13T17:33:12.458Z,24.44
2018-08-13T17:38:17.258Z,24.44
2018-08-13T17:43:22.003Z,24.48
2018-08-13T17:48:26.157Z,24.51
2018-08-13T17:53:30.796Z,24.67
2018-08-13T17:58:35.343Z,24.67
2018-08-13T18:03:39.700Z,24.69
2018-08-13T18:08:44.447Z,24.62
2018-08-13T18:13:49.810Z,24.47
2018-08-13T18:18:54.526Z,24.40
2018-08-13T18:23:59.220Z,24.24
2018-08-13T18:29:03.901Z,24.03
2018-08-13T18:34:08.728Z,23.91
2018-08-13T18:39:12.189Z,23.89
2018-08-13T18:44:16.110Z,23.75
2018-08-13T18:49:20.479Z,23.60
2018-08-13T18:54:23.989Z,23.54
2018-08-13T18:59:27.488Z,23.48
2018-08-13T19:04:31.014Z,23.42
2018-08-13T19:09:34.542Z,23.35
2018-08-13T19:14:38.006Z,23.41
2018-08-13T19:19:41.525Z,23.30
2018-08-13T19:24:45.094Z,23.27
2018-08-13T19:29:48.594Z,23.15
2018-08-13T19:34:52.224Z,23.01
2018-08-13T19:39:55.737Z,22.85
2018-08-13T19:44:59.233Z,22.85
2018-08-13T19:50:03.359Z,22.77
2018-08-13T19:55:08.338Z,22.57
2018-08-13T20:00:17.679Z,22.47
2018-08-13T20:05:22.692Z,22.57
2018-08-13T20:20:31.370Z,22.53
2018-08-13T20:25:34.948Z,22.50
2018-08-13T20:30:38.644Z,22.51
2018-08-13T20:35:42.367Z,22.49
2018-08-13T20:40:45.870Z,22.44
2018-08-13T20:45:49.319Z,22.37
2018-08-13T20:50:52.943Z,22.39
2018-08-13T20:55:56.461Z,22.39
2018-08-13T21:01:00.150Z,22.36
2018-08-13T21:06:03.721Z,22.35
2018-08-13T21:11:07.278Z,22.37
2018-08-13T21:16:10.798Z,22.40
2018-08-13T21:21:14.400Z,22.38
2018-08-13T21:26:18.010Z,22.32
2018-08-13T21:31:21.662Z,22.24
2018-08-13T21:36:25.219Z,22.23
2018-08-13T21:41:28.769Z,22.19
2018-08-13T21:46:32.336Z,22.23
2018-08-13T21:51:35.958Z,22.27
2018-08-13T21:56:39.590Z,22.28
2018-08-13T22:01:47.083Z,22.24
2018-08-13T22:06:50.599Z,22.20
2018-08-13T22:11:54.135Z,22.19
2018-08-13T22:16:57.657Z,22.13
2018-08-13T22:22:01.248Z,22.08
2018-08-13T22:27:04.824Z,22.07
2018-08-13T22:32:08.399Z,22.08
2018-08-13T22:37:12.068Z,22.02
2018-08-13T22:42:15.554Z,21.95
2018-08-13T22:47:18.993Z,21.96
2018-08-13T22:52:22.549Z,21.97
2018-08-13T22:57:26.138Z,21.96
2018-08-13T23:02:29.757Z,21.95
2018-08-13T23:07:33.340Z,21.93
2018-08-13T23:12:37.328Z,21.89
2018-08-13T23:17:41.589Z,21.87
2018-08-13T23:22:48.779Z,21.84
2018-08-13T23:27:53.749Z,21.75
2018-08-13T23:32:58.164Z,21.73
2018-08-13T23:38:01.769Z,21.74
2018-08-13T23:43:05.278Z,21.72
2018-08-13T23:48:08.920Z,21.70
2018-08-13T23:53:12.463Z,21.69
2018-08-13T23:58:15.985Z,21.67
